createdAt,value
2023-05-22T00:01:04.837Z,17.65
2023-05-22T00:03:31.310Z,17.63
2023-05-22T00:04:51.652Z,17.63
2023-05-22T00:05:58.902Z,13.95
2023-05-22T00:08:29.243Z,15.85
2023-05-22T00:09:51.615Z,15.85
2023-05-22T00:10:56.553Z,20.95
2023-05-22T00:13:23.020Z,18.83
2023-05-22T00:14:51.590Z,18.83
2023-05-22T00:15:49.491Z,17.48
2023-05-22T00:18:15.904Z,19.17
2023-05-22T00:19:51.695Z,19.17
2023-05-22T00:20:42.367Z,14.93
2023-05-22T00:23:13.068Z,14.07
2023-05-22T00:24:51.651Z,14.07
2023-05-22T00:25:41.387Z,17.13
2023-05-22T00:28:07.903Z,14.60
2023-05-22T00:29:51.678Z,14.60
2023-05-22T00:30:34.884Z,14.27
2023-05-22T00:33:02.244Z,19.77
2023-05-22T00:34:51.704Z,19.77
2023-05-22T00:35:28.789Z,20.17
2023-05-22T00:37:55.264Z,17.55
2023-05-22T00:39:51.734Z,17.55
2023-05-22T00:40:22.377Z,17.83
2023-05-22T00:42:48.855Z,26.42
2023-05-22T00:44:51.753Z,26.42
2023-05-22T00:45:15.784Z,19.77
2023-05-22T00:47:42.265Z,21.95
2023-05-22T00:49:51.762Z,21.95
2023-05-22T00:50:11.058Z,21.77
2023-05-22T00:52:41.244Z,21.85
2023-05-22T00:54:51.856Z,21.85
2023-05-22T00:55:09.007Z,16.35
2023-05-22T00:57:38.245Z,20.08
2023-05-22T00:59:51.870Z,20.08
2023-05-22T01:00:06.239Z,19.13
2023-05-22T01:02:33.079Z,18.42
2023-05-22T01:04:51.864Z,18.42
2023-05-22T01:04:59.782Z,15.88
2023-05-22T01:07:26.232Z,18.63
2023-05-22T01:09:52.679Z,17.83
2023-05-22T01:09:52.850Z,17.83
2023-05-22T01:12:42.874Z,19.58
2023-05-22T01:14:51.780Z,19.58
2023-05-22T01:15:17.328Z,15.93
2023-05-22T01:17:49.640Z,18.77
2023-05-22T01:19:51.828Z,18.77
2023-05-22T01:20:28.873Z,18.88
2023-05-22T01:23:33.880Z,19.27
2023-05-22T01:24:51.815Z,19.27
2023-05-22T01:26:12.224Z,19.25
2023-05-22T01:29:00.669Z,16.83
2023-05-22T01:29:51.805Z,16.83
2023-05-22T01:31:31.261Z,18.52
2023-05-22T01:34:01.175Z,18.33
2023-05-22T01:34:51.791Z,18.33
2023-05-22T01:36:31.418Z,26.58
2023-05-22T01:39:01.369Z,18.88
2023-05-22T01:39:51.867Z,18.88
2023-05-22T01:41:29.425Z,20.95
2023-05-22T01:43:56.353Z,17.05
2023-05-22T01:44:51.790Z,17.05
2023-05-22T01:46:26.916Z,20.67
2023-05-22T01:48:53.351Z,19.05
2023-05-22T01:49:51.793Z,19.05
2023-05-22T01:51:53.605Z,30.60
2023-05-22T01:54:31.671Z,17.13
2023-05-22T01:54:51.829Z,17.13
2023-05-22T01:57:37.472Z,20.08
2023-05-22T01:59:51.801Z,20.08
2023-05-22T02:00:09.915Z,16.35
2023-05-22T02:04:51.813Z,15.55
2023-05-22T02:05:05.813Z,17.63
2023-05-22T02:07:34.013Z,32.65
2023-05-22T02:09:51.809Z,32.65
2023-05-22T02:10:02.584Z,22.00
2023-05-22T02:12:29.344Z,20.48
2023-05-22T02:14:51.842Z,20.48
2023-05-22T02:14:55.934Z,22.42
2023-05-22T02:17:23.276Z,15.27
2023-05-22T02:19:49.705Z,18.67
2023-05-22T02:19:51.819Z,18.67
2023-05-22T02:22:16.096Z,18.58
2023-05-22T02:24:47.100Z,15.77
2023-05-22T02:24:51.865Z,15.77
2023-05-22T02:27:14.287Z,19.08
2023-05-22T02:29:40.849Z,16.80
2023-05-22T02:29:51.820Z,16.80
2023-05-22T02:32:07.708Z,23.15
2023-05-22T02:34:34.885Z,19.83
2023-05-22T02:34:54.086Z,19.83
2023-05-22T02:37:04.748Z,16.02
2023-05-22T02:39:31.263Z,15.88
2023-05-22T02:39:51.880Z,15.88
2023-05-22T02:41:57.791Z,17.73
2023-05-22T02:44:24.232Z,17.77
2023-05-22T02:44:51.813Z,17.77
2023-05-22T02:46:50.645Z,16.17
2023-05-22T02:49:17.017Z,26.20
2023-05-22T02:49:51.804Z,26.20
2023-05-22T02:51:47.800Z,15.82
2023-05-22T02:54:15.992Z,17.30
2023-05-22T02:54:51.824Z,17.30
2023-05-22T02:56:43.327Z,14.80
2023-05-22T02:59:10.110Z,18.50
2023-05-22T02:59:51.820Z,18.50
2023-05-22T03:01:39.704Z,17.17
2023-05-22T03:04:06.782Z,18.65
2023-05-22T03:04:51.848Z,18.65
2023-05-22T03:06:35.035Z,17.05
2023-05-22T03:09:03.928Z,16.45
2023-05-22T03:09:51.830Z,16.45
2023-05-22T03:11:31.278Z,18.90
2023-05-22T03:13:57.924Z,15.60
2023-05-22T03:14:51.842Z,15.60
2023-05-22T03:16:24.968Z,15.60
2023-05-22T03:18:51.862Z,15.07
2023-05-22T03:19:51.828Z,15.07
2023-05-22T03:21:18.301Z,14.52
2023-05-22T03:23:44.859Z,13.13
2023-05-22T03:24:51.932Z,13.13
2023-05-22T03:26:11.303Z,14.57
2023-05-22T03:28:37.857Z,18.58
2023-05-22T03:29:51.829Z,18.58
2023-05-22T03:31:04.396Z,11.90
2023-05-22T03:33:30.948Z,15.60
2023-05-22T03:34:51.873Z,15.60
2023-05-22T03:35:57.538Z,12.55
2023-05-22T03:38:24.002Z,14.27
2023-05-22T03:39:51.873Z,14.27
2023-05-22T03:40:50.363Z,11.55
2023-05-22T03:43:16.828Z,12.32
2023-05-22T03:44:51.823Z,12.32
2023-05-22T03:45:43.881Z,17.90
2023-05-22T03:48:10.983Z,10.30
2023-05-22T03:49:51.855Z,10.30
2023-05-22T03:50:37.877Z,12.98
2023-05-22T03:53:05.828Z,11.02
2023-05-22T03:54:51.819Z,11.02
2023-05-22T03:55:32.264Z,12.60
2023-05-22T03:57:58.724Z,16.27
2023-05-22T03:59:51.817Z,16.27
2023-05-22T04:00:26.802Z,11.35
2023-05-22T04:02:54.742Z,21.70
2023-05-22T04:04:51.893Z,21.70
2023-05-22T04:05:21.281Z,9.88
2023-05-22T04:07:47.731Z,11.30
2023-05-22T04:09:51.826Z,11.30
2023-05-22T04:10:14.158Z,11.85
2023-05-22T04:12:40.630Z,10.68
2023-05-22T04:14:52.862Z,10.68
2023-05-22T04:15:07.843Z,12.30
2023-05-22T04:17:35.456Z,12.05
2023-05-22T04:19:51.832Z,12.05
2023-05-22T04:20:02.009Z,12.05
2023-05-22T04:22:30.825Z,10.13
2023-05-22T04:24:51.846Z,10.13
2023-05-22T04:24:57.750Z,17.85
2023-05-22T04:27:24.852Z,13.98
2023-05-22T04:29:51.325Z,13.50
2023-05-22T04:29:51.839Z,13.50
2023-05-22T04:32:18.507Z,13.73
2023-05-22T04:34:47.739Z,12.93
2023-05-22T04:34:51.849Z,12.93
2023-05-22T04:37:15.165Z,11.88
2023-05-22T04:39:41.617Z,13.00
2023-05-22T04:39:51.956Z,13.00
2023-05-22T04:42:09.405Z,15.15
2023-05-22T04:44:35.795Z,20.00
2023-05-22T04:44:51.909Z,20.00
2023-05-22T04:47:04.293Z,16.85
2023-05-22T04:49:31.976Z,19.85
2023-05-22T04:49:51.837Z,19.85
2023-05-22T04:51:58.444Z,18.73
2023-05-22T04:54:24.864Z,23.15
2023-05-22T04:54:51.855Z,23.15
2023-05-22T04:56:54.136Z,16.20
2023-05-22T04:59:23.348Z,28.00
2023-05-22T04:59:51.829Z,28.00
2023-05-22T05:01:50.473Z,16.73
2023-05-22T05:04:17.577Z,21.20
2023-05-22T05:04:51.852Z,21.20
2023-05-22T05:06:44.710Z,19.27
2023-05-22T05:09:11.171Z,16.20
2023-05-22T05:09:51.928Z,16.20
2023-05-22T05:11:37.636Z,17.92
2023-05-22T05:14:04.092Z,20.15
2023-05-22T05:14:51.857Z,20.15
2023-05-22T05:16:30.575Z,18.83
2023-05-22T05:18:57.070Z,17.65
2023-05-22T05:19:51.848Z,17.65
2023-05-22T05:21:24.443Z,24.17
2023-05-22T05:23:52.004Z,19.00
2023-05-22T05:24:51.839Z,19.00
2023-05-22T05:26:18.623Z,25.35
2023-05-22T05:28:45.014Z,20.65
2023-05-22T05:29:51.985Z,20.65
2023-05-22T05:31:11.780Z,22.92
2023-05-22T05:33:38.362Z,20.42
2023-05-22T05:34:51.875Z,20.42
2023-05-22T05:36:05.220Z,24.23
2023-05-22T05:38:31.676Z,25.88
2023-05-22T05:39:51.970Z,25.88
2023-05-22T05:40:58.059Z,22.48
2023-05-22T05:43:25.440Z,24.65
2023-05-22T05:44:51.887Z,24.65
2023-05-22T05:45:51.979Z,20.00
2023-05-22T05:48:18.456Z,27.13
2023-05-22T05:49:51.913Z,27.13
2023-05-22T05:50:44.887Z,23.83
2023-05-22T05:53:11.579Z,28.23
2023-05-22T05:54:51.849Z,28.23
2023-05-22T05:55:38.012Z,29.77
2023-05-22T05:58:04.620Z,25.70
2023-05-22T05:59:51.868Z,25.70
2023-05-22T06:00:31.333Z,22.40
2023-05-22T06:02:57.806Z,28.15
2023-05-22T06:04:51.849Z,28.15
2023-05-22T06:05:24.474Z,25.80
2023-05-22T06:07:51.861Z,21.45
2023-05-22T06:09:51.951Z,21.45
2023-05-22T06:10:18.372Z,26.27
2023-05-22T06:12:44.825Z,23.15
2023-05-22T06:14:51.878Z,23.15
2023-05-22T06:15:13.590Z,27.75
2023-05-22T06:17:40.183Z,25.73
2023-05-22T06:19:51.855Z,25.73
2023-05-22T06:20:07.473Z,28.02
2023-05-22T06:22:34.048Z,26.90
2023-05-22T06:24:51.875Z,26.90
2023-05-22T06:25:00.485Z,24.58
2023-05-22T06:27:29.642Z,26.58
2023-05-22T06:29:51.847Z,26.58
2023-05-22T06:29:56.638Z,23.48
2023-05-22T06:32:23.267Z,31.15
2023-05-22T06:34:49.810Z,23.83
2023-05-22T06:34:51.873Z,23.83
2023-05-22T06:37:16.919Z,30.77
2023-05-22T06:39:43.364Z,22.58
2023-05-22T06:39:51.941Z,22.58
2023-05-22T06:42:09.870Z,31.65
2023-05-22T06:44:38.624Z,23.90
2023-05-22T06:44:51.880Z,23.90
2023-05-22T06:47:05.483Z,29.30
2023-05-22T06:49:31.945Z,20.00
2023-05-22T06:49:51.869Z,20.00
2023-05-22T06:51:58.430Z,32.47
2023-05-22T06:54:28.678Z,25.70
2023-05-22T06:54:51.867Z,25.70
2023-05-22T06:56:56.563Z,21.58
2023-05-22T06:59:22.993Z,23.92
2023-05-22T06:59:51.915Z,23.92
2023-05-22T07:01:49.542Z,24.00
2023-05-22T07:04:16.175Z,23.48
2023-05-22T07:04:51.935Z,23.48
2023-05-22T07:06:42.878Z,28.10
2023-05-22T07:09:11.161Z,23.35
2023-05-22T07:09:51.895Z,23.35
2023-05-22T07:11:38.104Z,31.42
2023-05-22T07:14:04.895Z,24.98
2023-05-22T07:14:51.865Z,24.98
2023-05-22T07:16:31.446Z,32.10
2023-05-22T07:18:57.979Z,29.90
2023-05-22T07:19:51.892Z,29.90
2023-05-22T07:21:24.713Z,26.88
2023-05-22T07:23:54.344Z,24.42
2023-05-22T07:24:51.894Z,24.42
2023-05-22T07:26:22.592Z,26.85
2023-05-22T07:28:50.801Z,29.42
2023-05-22T07:29:51.871Z,29.42
2023-05-22T07:31:17.238Z,33.58
2023-05-22T07:33:43.694Z,25.30
2023-05-22T07:34:51.899Z,25.30
2023-05-22T07:36:10.304Z,29.27
2023-05-22T07:38:36.704Z,24.98
2023-05-22T07:39:51.978Z,24.98
2023-05-22T07:41:04.807Z,25.50
2023-05-22T07:43:31.460Z,24.92
2023-05-22T07:44:51.888Z,24.92
2023-05-22T07:45:58.008Z,22.50
2023-05-22T07:48:24.485Z,25.98
2023-05-22T07:49:51.858Z,25.98
2023-05-22T07:50:51.185Z,36.83
2023-05-22T07:53:20.467Z,31.35
2023-05-22T07:54:51.890Z,31.35
2023-05-22T07:55:46.966Z,25.65
2023-05-22T07:58:13.680Z,32.40
2023-05-22T07:59:51.886Z,32.40
2023-05-22T08:00:40.285Z,25.40
2023-05-22T08:03:07.061Z,26.80
2023-05-22T08:04:51.969Z,26.80
2023-05-22T08:05:33.540Z,28.25
2023-05-22T08:08:00.042Z,19.50
2023-05-22T08:09:51.879Z,19.50
2023-05-22T08:10:28.028Z,30.92
2023-05-22T08:12:58.482Z,29.48
2023-05-22T08:14:51.907Z,29.48
2023-05-22T08:15:24.912Z,25.30
2023-05-22T08:17:51.347Z,28.88
2023-05-22T08:19:52.019Z,28.88
2023-05-22T08:20:17.912Z,28.13
2023-05-22T08:22:44.398Z,25.35
2023-05-22T08:24:51.862Z,25.35
2023-05-22T08:25:10.954Z,21.92
2023-05-22T08:27:37.416Z,23.80
2023-05-22T08:29:51.894Z,23.80
2023-05-22T08:30:04.753Z,23.92
2023-05-22T08:32:31.664Z,21.98
2023-05-22T08:34:51.904Z,21.98
2023-05-22T08:34:59.333Z,24.58
2023-05-22T08:37:26.397Z,24.02
2023-05-22T08:39:52.913Z,27.98
2023-05-22T08:39:53.080Z,27.98
2023-05-22T08:42:19.407Z,23.67
2023-05-22T08:44:47.489Z,19.10
2023-05-22T08:44:51.876Z,19.10
2023-05-22T08:47:14.897Z,23.95
2023-05-22T08:49:42.325Z,23.02
2023-05-22T08:49:51.940Z,23.02
2023-05-22T08:52:26.253Z,18.75
2023-05-22T08:54:54.956Z,19.05
2023-05-22T08:54:55.096Z,19.05
2023-05-22T08:57:21.916Z,24.52
2023-05-22T08:59:49.017Z,20.88
2023-05-22T08:59:51.902Z,20.88
2023-05-22T09:02:17.036Z,21.65
2023-05-22T09:04:43.624Z,26.88
2023-05-22T09:04:51.918Z,26.88
2023-05-22T09:07:10.234Z,21.38
2023-05-22T09:09:37.841Z,27.35
2023-05-22T09:09:51.896Z,27.35
2023-05-22T09:12:11.404Z,25.85
2023-05-22T09:14:46.875Z,25.55
2023-05-22T09:14:53.412Z,25.55
2023-05-22T09:17:17.020Z,30.67
2023-05-22T09:19:45.745Z,25.10
2023-05-22T09:19:51.936Z,25.10
2023-05-22T09:22:13.311Z,25.70
2023-05-22T09:24:44.930Z,19.45
2023-05-22T09:24:51.901Z,19.45
2023-05-22T09:27:11.917Z,26.03
2023-05-22T09:29:49.399Z,32.92
2023-05-22T09:29:51.903Z,32.92
2023-05-22T09:32:16.715Z,26.80
2023-05-22T09:34:45.046Z,26.05
2023-05-22T09:34:51.911Z,26.05
2023-05-22T09:37:12.256Z,34.20
2023-05-22T09:39:46.145Z,25.50
2023-05-22T09:39:51.907Z,25.50
2023-05-22T09:42:15.586Z,25.85
2023-05-22T09:44:49.198Z,22.40
2023-05-22T09:44:51.911Z,22.40
2023-05-22T09:47:15.638Z,35.40
2023-05-22T09:49:43.944Z,28.73
2023-05-22T09:49:51.938Z,28.73
2023-05-22T09:52:15.106Z,24.85
2023-05-22T09:54:55.748Z,26.83
2023-05-22T09:54:55.912Z,26.83
2023-05-22T09:57:24.611Z,22.73
2023-05-22T09:59:58.263Z,28.33
2023-05-22T09:59:58.437Z,28.33
2023-05-22T10:02:28.066Z,25.50
2023-05-22T10:04:52.043Z,25.50
2023-05-22T10:04:54.906Z,32.70
2023-05-22T10:07:27.197Z,35.28
2023-05-22T10:09:51.887Z,35.28
2023-05-22T10:10:07.285Z,26.17
2023-05-22T10:12:37.780Z,24.48
2023-05-22T10:14:51.938Z,24.48
2023-05-22T10:15:07.265Z,23.98
2023-05-22T10:17:34.853Z,24.85
2023-05-22T10:19:51.950Z,24.85
2023-05-22T10:20:02.301Z,25.08
2023-05-22T10:22:29.276Z,27.35
2023-05-22T10:24:51.988Z,27.35
2023-05-22T10:24:55.896Z,22.42
2023-05-22T10:27:22.309Z,26.10
2023-05-22T10:29:58.613Z,21.27
2023-05-22T10:29:58.898Z,21.27
2023-05-22T10:32:39.117Z,29.35
2023-05-22T10:34:51.934Z,29.35
2023-05-22T10:35:17.301Z,28.80
2023-05-22T10:38:21.439Z,24.75
2023-05-22T10:39:51.926Z,24.75
2023-05-22T10:40:48.910Z,25.50
2023-05-22T10:43:15.643Z,25.48
2023-05-22T10:44:51.931Z,25.48
2023-05-22T10:45:46.407Z,26.20
2023-05-22T10:48:12.849Z,26.70
2023-05-22T10:49:51.948Z,26.70
2023-05-22T10:50:40.385Z,28.33
2023-05-22T10:53:22.292Z,34.78
2023-05-22T10:54:51.946Z,34.78
2023-05-22T10:55:49.401Z,24.60
2023-05-22T10:58:17.034Z,28.55
2023-05-22T10:59:51.976Z,28.55
2023-05-22T11:00:44.853Z,30.55
2023-05-22T11:03:17.647Z,32.45
2023-05-22T11:04:52.052Z,32.45
2023-05-22T11:05:52.693Z,33.60
2023-05-22T11:08:28.400Z,31.00
2023-05-22T11:09:51.953Z,31.00
2023-05-22T11:10:59.307Z,28.08
2023-05-22T11:13:28.733Z,27.85
2023-05-22T11:14:51.949Z,27.85
2023-05-22T11:15:59.071Z,25.80
2023-05-22T11:18:28.768Z,25.80
2023-05-22T11:19:51.979Z,25.80
2023-05-22T11:20:55.774Z,28.40
2023-05-22T11:23:25.603Z,33.53
2023-05-22T11:24:52.010Z,33.53
2023-05-22T11:25:52.080Z,35.47
2023-05-22T11:28:18.606Z,28.10
2023-05-22T11:29:51.953Z,28.10
2023-05-22T11:30:45.505Z,33.72
2023-05-22T11:33:12.828Z,26.73
2023-05-22T11:34:51.930Z,26.73
2023-05-22T11:35:39.883Z,26.27
2023-05-22T11:38:07.208Z,27.92
2023-05-22T11:39:51.950Z,27.92
2023-05-22T11:40:33.866Z,33.95
2023-05-22T11:43:00.515Z,34.67
2023-05-22T11:44:51.938Z,34.67
2023-05-22T11:45:27.113Z,29.02
2023-05-22T11:47:53.611Z,29.90
2023-05-22T11:49:51.952Z,29.90
2023-05-22T11:50:33.610Z,30.25
2023-05-22T11:53:07.153Z,33.83
2023-05-22T11:54:51.944Z,33.83
2023-05-22T11:55:33.727Z,35.95
2023-05-22T11:58:02.054Z,31.33
2023-05-22T11:59:51.944Z,31.33
2023-05-22T12:00:29.364Z,29.20
2023-05-22T12:02:56.309Z,34.85
2023-05-22T12:04:51.928Z,34.85
2023-05-22T12:05:25.591Z,24.60
2023-05-22T12:07:52.617Z,33.67
2023-05-22T12:09:51.907Z,33.67
2023-05-22T12:10:19.119Z,31.08
2023-05-22T12:12:45.682Z,31.77
2023-05-22T12:14:51.921Z,31.77
2023-05-22T12:15:12.526Z,31.33
2023-05-22T12:17:39.964Z,27.52
2023-05-22T12:19:51.953Z,27.52
2023-05-22T12:20:07.266Z,33.25
2023-05-22T12:22:33.878Z,28.33
2023-05-22T12:24:51.949Z,28.33
2023-05-22T12:25:00.309Z,29.27
2023-05-22T12:27:33.262Z,34.08
2023-05-22T12:29:51.967Z,34.08
2023-05-22T12:30:09.254Z,25.77
2023-05-22T12:32:35.815Z,26.08
2023-05-22T12:34:51.929Z,26.08
2023-05-22T12:35:02.294Z,23.35
2023-05-22T12:37:28.908Z,27.60
2023-05-22T12:39:51.971Z,27.60
2023-05-22T12:39:59.712Z,24.58
2023-05-22T12:42:27.176Z,30.52
2023-05-22T12:44:51.954Z,30.52
2023-05-22T12:44:55.002Z,29.15
2023-05-22T12:47:22.930Z,28.88
2023-05-22T12:49:49.429Z,28.60
2023-05-22T12:49:51.950Z,28.60
2023-05-22T12:52:15.952Z,29.70
2023-05-22T12:54:42.560Z,30.33
2023-05-22T12:54:52.027Z,30.33
2023-05-22T12:57:09.359Z,33.67
2023-05-22T12:59:37.191Z,30.77
2023-05-22T12:59:51.927Z,30.77
2023-05-22T13:02:07.030Z,29.90
2023-05-22T13:04:33.596Z,30.83
2023-05-22T13:04:52.014Z,30.83
2023-05-22T13:07:00.402Z,29.63
2023-05-22T13:09:26.995Z,29.80
2023-05-22T13:09:51.941Z,29.80
2023-05-22T13:11:53.485Z,28.67
2023-05-22T13:14:20.027Z,30.92
2023-05-22T13:14:51.950Z,30.92
2023-05-22T13:16:46.716Z,28.17
2023-05-22T13:19:13.357Z,33.08
2023-05-22T13:19:51.983Z,33.08
2023-05-22T13:21:40.058Z,27.80
2023-05-22T13:24:06.494Z,31.60
2023-05-22T13:24:51.915Z,31.60
2023-05-22T13:26:32.951Z,28.27
2023-05-22T13:28:59.444Z,37.35
2023-05-22T13:29:51.928Z,37.35
2023-05-22T13:31:25.945Z,35.63
2023-05-22T13:33:52.535Z,32.42
2023-05-22T13:34:52.202Z,32.42
2023-05-22T13:36:19.039Z,29.40
2023-05-22T13:38:45.570Z,31.88
2023-05-22T13:39:52.010Z,31.88
2023-05-22T13:41:12.058Z,29.00
2023-05-22T13:43:38.598Z,36.83
2023-05-22T13:44:51.936Z,36.83
2023-05-22T13:46:05.196Z,37.28
2023-05-22T13:48:31.670Z,27.45
2023-05-22T13:49:51.928Z,27.45
2023-05-22T13:50:58.092Z,31.33
2023-05-22T13:53:24.633Z,35.60
2023-05-22T13:54:52.051Z,35.60
2023-05-22T13:55:51.716Z,32.28
2023-05-22T13:58:18.245Z,29.77
2023-05-22T13:59:51.940Z,29.77
2023-05-22T14:00:44.720Z,32.97
2023-05-22T14:03:11.633Z,32.88
2023-05-22T14:04:52.009Z,32.88
2023-05-22T14:05:38.501Z,33.22
2023-05-22T14:08:05.125Z,33.83
2023-05-22T14:09:51.944Z,33.83
2023-05-22T14:10:31.600Z,30.75
2023-05-22T14:12:58.018Z,29.40
2023-05-22T14:14:51.928Z,29.40
2023-05-22T14:15:24.450Z,36.40
2023-05-22T14:17:50.998Z,28.00
2023-05-22T14:19:52.016Z,28.00
2023-05-22T14:20:17.580Z,29.25
2023-05-22T14:22:56.535Z,35.15
2023-05-22T14:24:51.950Z,35.15
2023-05-22T14:25:24.473Z,39.88
2023-05-22T14:27:51.088Z,30.00
2023-05-22T14:29:51.956Z,30.00
2023-05-22T14:30:17.938Z,30.42
2023-05-22T14:32:44.455Z,31.65
2023-05-22T14:34:51.954Z,31.65
2023-05-22T14:35:11.207Z,34.72
2023-05-22T14:37:37.706Z,25.48
2023-05-22T14:39:52.040Z,25.48
2023-05-22T14:40:05.067Z,31.35
2023-05-22T14:42:31.566Z,21.90
2023-05-22T14:44:51.924Z,21.90
2023-05-22T14:44:58.527Z,31.05
2023-05-22T14:47:24.951Z,35.88
2023-05-22T14:49:51.699Z,31.23
2023-05-22T14:49:55.397Z,31.23
2023-05-22T14:52:19.031Z,27.23
2023-05-22T14:54:45.807Z,29.35
2023-05-22T14:54:52.029Z,29.35
2023-05-22T14:57:12.181Z,30.02
2023-05-22T14:59:38.941Z,34.13
2023-05-22T14:59:51.967Z,34.13
2023-05-22T15:02:05.576Z,33.92
2023-05-22T15:04:32.042Z,28.15
2023-05-22T15:04:52.020Z,28.15
2023-05-22T15:06:58.451Z,32.95
2023-05-22T15:09:24.921Z,34.08
2023-05-22T15:09:51.970Z,34.08
2023-05-22T15:11:51.505Z,29.60
2023-05-22T15:14:18.122Z,29.77
2023-05-22T15:14:51.964Z,29.77
2023-05-22T15:16:44.979Z,31.95
2023-05-22T15:19:11.675Z,27.67
2023-05-22T15:19:51.965Z,27.67
2023-05-22T15:21:38.137Z,38.22
2023-05-22T15:24:04.723Z,33.53
2023-05-22T15:24:51.956Z,33.53
2023-05-22T15:26:31.161Z,38.65
2023-05-22T15:29:01.461Z,32.08
2023-05-22T15:29:51.973Z,32.08
2023-05-22T15:31:29.425Z,28.08
2023-05-22T15:33:56.366Z,35.97
2023-05-22T15:34:51.942Z,35.97
2023-05-22T15:36:23.633Z,33.67
2023-05-22T15:38:50.242Z,37.67
2023-05-22T15:39:52.023Z,37.67
2023-05-22T15:41:16.746Z,38.75
2023-05-22T15:43:43.147Z,30.17
2023-05-22T15:44:51.985Z,30.17
2023-05-22T15:46:12.154Z,28.60
2023-05-22T15:48:38.696Z,28.25
2023-05-22T15:49:51.985Z,28.25
2023-05-22T15:51:06.705Z,38.58
2023-05-22T15:53:33.182Z,27.17
2023-05-22T15:54:52.061Z,27.17
2023-05-22T15:55:59.620Z,31.73
2023-05-22T15:58:26.070Z,31.92
2023-05-22T15:59:52.029Z,31.92
2023-05-22T16:00:52.685Z,33.75
2023-05-22T16:03:19.166Z,27.58
2023-05-22T16:04:51.968Z,27.58
2023-05-22T16:05:47.030Z,33.95
2023-05-22T16:08:16.658Z,28.52
2023-05-22T16:09:51.993Z,28.52
2023-05-22T16:10:45.272Z,26.42
2023-05-22T16:13:12.098Z,30.55
2023-05-22T16:14:59.382Z,30.55
2023-05-22T16:15:39.944Z,26.75
2023-05-22T16:18:11.213Z,32.33
2023-05-22T16:19:51.977Z,32.33
2023-05-22T16:20:37.752Z,27.92
2023-05-22T16:23:04.240Z,23.50
2023-05-22T16:24:51.968Z,23.50
2023-05-22T16:25:30.865Z,25.63
2023-05-22T16:27:57.409Z,32.40
2023-05-22T16:29:52.006Z,32.40
2023-05-22T16:30:23.880Z,26.48
2023-05-22T16:32:50.445Z,24.98
2023-05-22T16:34:51.952Z,24.98
2023-05-22T16:35:18.873Z,25.80
2023-05-22T16:37:45.308Z,25.70
2023-05-22T16:39:52.048Z,25.70
2023-05-22T16:40:11.997Z,29.80
2023-05-22T16:42:38.563Z,27.90
2023-05-22T16:44:51.983Z,27.90
2023-05-22T16:45:06.100Z,27.15
2023-05-22T16:47:33.042Z,25.80
2023-05-22T16:49:52.047Z,25.80
2023-05-22T16:49:59.924Z,27.10
2023-05-22T16:52:26.438Z,27.00
2023-05-22T16:54:53.720Z,26.70
2023-05-22T16:54:53.883Z,26.70
2023-05-22T16:57:20.420Z,24.63
2023-05-22T16:59:47.065Z,26.65
2023-05-22T16:59:51.972Z,26.65
2023-05-22T17:02:13.878Z,20.30
2023-05-22T17:04:41.011Z,18.92
2023-05-22T17:04:51.964Z,18.92
2023-05-22T17:07:07.709Z,24.65
2023-05-22T17:09:34.433Z,23.17
2023-05-22T17:09:51.996Z,23.17
2023-05-22T17:12:01.083Z,23.00
2023-05-22T17:14:27.523Z,21.48
2023-05-22T17:14:51.982Z,21.48
2023-05-22T17:16:55.483Z,18.65
2023-05-22T17:19:22.140Z,22.08
2023-05-22T17:19:51.990Z,22.08
2023-05-22T17:21:48.728Z,23.92
2023-05-22T17:24:15.417Z,20.35
2023-05-22T17:24:51.981Z,20.35
2023-05-22T17:26:42.330Z,20.15
2023-05-22T17:29:10.858Z,20.65
2023-05-22T17:29:52.007Z,20.65
2023-05-22T17:31:39.490Z,17.77
2023-05-22T17:34:06.355Z,17.38
2023-05-22T17:34:52.989Z,17.38
2023-05-22T17:36:33.019Z,13.02
2023-05-22T17:39:00.307Z,10.88
2023-05-22T17:39:52.068Z,10.88
2023-05-22T17:41:27.020Z,11.98
2023-05-22T17:43:55.772Z,10.80
2023-05-22T17:44:51.975Z,10.80
2023-05-22T17:46:22.548Z,13.80
2023-05-22T17:48:49.017Z,11.75
2023-05-22T17:49:52.023Z,11.75
2023-05-22T17:51:15.659Z,11.52
2023-05-22T17:53:42.404Z,20.15
2023-05-22T17:54:51.978Z,20.15
2023-05-22T17:56:09.104Z,9.30
2023-05-22T17:58:37.705Z,9.05
2023-05-22T17:59:52.016Z,9.05
2023-05-22T18:01:04.524Z,8.77
2023-05-22T18:03:31.039Z,8.35
2023-05-22T18:04:52.011Z,8.35
2023-05-22T18:05:57.639Z,8.65
2023-05-22T18:08:24.153Z,8.68
2023-05-22T18:09:51.997Z,8.68
2023-05-22T18:10:50.586Z,9.65
2023-05-22T18:13:19.147Z,9.02
2023-05-22T18:14:51.970Z,9.02
2023-05-22T18:15:45.769Z,9.52
2023-05-22T18:18:13.039Z,8.93
2023-05-22T18:19:51.992Z,8.93
2023-05-22T18:20:39.984Z,9.20
2023-05-22T18:23:06.703Z,10.48
2023-05-22T18:24:51.969Z,10.48
2023-05-22T18:25:33.085Z,9.38
2023-05-22T18:27:59.572Z,9.73
2023-05-22T18:29:51.963Z,9.73
2023-05-22T18:30:25.996Z,9.98
2023-05-22T18:32:52.610Z,9.23
2023-05-22T18:34:52.034Z,9.23
2023-05-22T18:35:19.208Z,8.75
2023-05-22T18:37:45.981Z,8.93
2023-05-22T18:39:51.981Z,8.93
2023-05-22T18:40:12.941Z,8.68
2023-05-22T18:42:39.350Z,10.80
2023-05-22T18:44:51.996Z,10.80
2023-05-22T18:45:06.781Z,9.38
2023-05-22T18:47:33.245Z,9.07
2023-05-22T18:49:52.038Z,9.07
2023-05-22T18:49:59.742Z,9.15
2023-05-22T18:52:26.146Z,8.90
2023-05-22T18:54:52.575Z,8.75
2023-05-22T18:54:52.716Z,8.75
2023-05-22T18:57:19.017Z,10.23
2023-05-22T18:59:46.223Z,8.45
2023-05-22T18:59:51.993Z,8.45
2023-05-22T19:02:12.966Z,9.77
2023-05-22T19:04:39.478Z,9.27
2023-05-22T19:04:52.133Z,9.27
2023-05-22T19:07:06.093Z,9.18
2023-05-22T19:09:32.501Z,7.35
2023-05-22T19:09:52.012Z,7.35
2023-05-22T19:11:58.945Z,10.05
2023-05-22T19:14:25.782Z,9.73
2023-05-22T19:14:52.127Z,9.73
2023-05-22T19:16:52.377Z,10.10
2023-05-22T19:19:18.880Z,9.88
2023-05-22T19:19:52.015Z,9.88
2023-05-22T19:21:45.352Z,10.23
2023-05-22T19:24:11.805Z,9.05
2023-05-22T19:24:52.033Z,9.05
2023-05-22T19:26:40.557Z,11.52
2023-05-22T19:29:07.150Z,9.23
2023-05-22T19:29:52.017Z,9.23
2023-05-22T19:31:34.842Z,9.60
2023-05-22T19:34:01.651Z,9.88
2023-05-22T19:34:52.003Z,9.88
2023-05-22T19:36:28.104Z,13.20
2023-05-22T19:38:54.535Z,9.98
2023-05-22T19:39:52.051Z,9.98
2023-05-22T19:41:23.129Z,14.35
2023-05-22T19:43:51.081Z,10.75
2023-05-22T19:44:52.054Z,10.75
2023-05-22T19:46:17.654Z,15.07
2023-05-22T19:48:44.134Z,10.68
2023-05-22T19:49:52.026Z,10.68
2023-05-22T19:51:10.640Z,12.48
2023-05-22T19:53:37.295Z,9.95
2023-05-22T19:54:52.046Z,9.95
2023-05-22T19:56:04.024Z,14.23
2023-05-22T19:58:30.544Z,10.10
2023-05-22T19:59:52.036Z,10.10
2023-05-22T20:00:57.023Z,12.55
2023-05-22T20:03:24.425Z,10.55
2023-05-22T20:04:52.028Z,10.55
2023-05-22T20:05:53.086Z,9.75
2023-05-22T20:08:21.645Z,12.70
2023-05-22T20:09:52.020Z,12.70
2023-05-22T20:10:48.402Z,13.10
2023-05-22T20:13:14.809Z,11.93
2023-05-22T20:14:52.042Z,11.93
2023-05-22T20:15:41.442Z,12.02
2023-05-22T20:18:08.375Z,13.88
2023-05-22T20:19:52.057Z,13.88
2023-05-22T20:20:35.131Z,11.70
2023-05-22T20:23:01.532Z,11.35
2023-05-22T20:24:52.037Z,11.35
2023-05-22T20:25:28.043Z,11.63
2023-05-22T20:27:54.499Z,18.63
2023-05-22T20:29:52.038Z,18.63
2023-05-22T20:30:21.017Z,12.23
2023-05-22T20:32:47.659Z,13.25
2023-05-22T20:34:52.091Z,13.25
2023-05-22T20:35:14.234Z,12.20
2023-05-22T20:37:41.611Z,13.07
2023-05-22T20:39:53.222Z,13.07
2023-05-22T20:40:09.418Z,11.68
2023-05-22T20:42:37.506Z,10.73
2023-05-22T20:44:52.012Z,10.73
2023-05-22T20:45:05.514Z,12.02
2023-05-22T20:47:31.962Z,11.00
2023-05-22T20:49:52.025Z,11.00
2023-05-22T20:49:58.463Z,10.75
2023-05-22T20:52:25.637Z,9.68
2023-05-22T20:54:52.006Z,12.57
2023-05-22T20:54:52.146Z,12.57
2023-05-22T20:57:18.427Z,10.05
2023-05-22T20:59:44.889Z,9.00
2023-05-22T20:59:52.032Z,9.00
2023-05-22T21:02:11.318Z,9.57
2023-05-22T21:04:37.719Z,9.15
2023-05-22T21:04:52.043Z,9.15
2023-05-22T21:07:04.886Z,8.88
2023-05-22T21:09:31.405Z,7.53
2023-05-22T21:09:52.046Z,7.53
2023-05-22T21:11:57.856Z,8.70
2023-05-22T21:14:24.235Z,7.03
2023-05-22T21:14:52.052Z,7.03
2023-05-22T21:16:50.663Z,7.55
2023-05-22T21:19:17.056Z,7.00
2023-05-22T21:19:52.043Z,7.00
2023-05-22T21:21:43.594Z,7.47
2023-05-22T21:24:10.533Z,8.43